createdAt,value
2023-03-26T00:01:19.524Z,77.29
2023-03-26T00:03:47.154Z,77.04
2023-03-26T00:06:16.572Z,76.96
2023-03-26T00:08:45.082Z,76.85
2023-03-26T00:11:13.935Z,77.41
2023-03-26T00:13:41.737Z,76.92
2023-03-26T00:16:08.399Z,76.84
2023-03-26T00:18:34.919Z,76.81
2023-03-26T00:21:04.021Z,77.17
2023-03-26T00:23:32.065Z,77.50
2023-03-26T00:25:58.831Z,77.37
2023-03-26T00:28:26.636Z,77.27
2023-03-26T00:31:05.410Z,77.20
2023-03-26T00:33:32.868Z,77.21
2023-03-26T00:36:03.857Z,77.27
2023-03-26T00:38:31.241Z,77.31
2023-03-26T00:41:06.235Z,77.48
2023-03-26T00:43:35.445Z,76.79
2023-03-26T00:46:02.300Z,76.61
2023-03-26T00:48:44.062Z,76.97
2023-03-26T00:51:12.339Z,76.72
2023-03-26T00:53:39.134Z,76.19
2023-03-26T00:56:06.560Z,76.04
2023-03-26T00:58:33.546Z,76.38
2023-03-26T01:01:03.229Z,76.37
2023-03-26T01:03:36.709Z,76.42
2023-03-26T01:06:34.164Z,76.55
2023-03-26T01:09:16.940Z,76.13
2023-03-26T01:11:44.154Z,75.61
2023-03-26T01:14:20.698Z,75.97
2023-03-26T01:16:58.620Z,76.02
2023-03-26T01:19:53.179Z,75.33
2023-03-26T01:22:25.904Z,75.35
2023-03-26T01:24:54.131Z,75.52
2023-03-26T01:27:36.120Z,75.42
2023-03-26T01:30:14.888Z,76.00
2023-03-26T01:35:55.505Z,75.48
2023-03-26T01:38:53.258Z,75.74
2023-03-26T01:41:47.670Z,75.61
2023-03-26T01:44:30.264Z,76.07
2023-03-26T01:46:58.655Z,75.68
2023-03-26T01:49:28.027Z,75.90
2023-03-26T01:51:56.423Z,75.78
2023-03-26T01:54:28.407Z,75.96
2023-03-26T01:57:09.876Z,76.18
2023-03-26T02:00:12.495Z,76.20
2023-03-26T02:02:42.615Z,75.95
2023-03-26T02:05:09.648Z,76.19
2023-03-26T02:07:50.940Z,76.21
2023-03-26T02:10:24.514Z,76.61
2023-03-26T02:12:51.289Z,76.52
2023-03-26T02:15:17.668Z,76.98
2023-03-26T02:17:44.252Z,76.77
2023-03-26T02:20:14.525Z,77.16
2023-03-26T02:22:45.927Z,76.88
2023-03-26T02:25:21.830Z,76.93
2023-03-26T02:27:49.975Z,77.14
2023-03-26T02:30:25.726Z,77.09
2023-03-26T02:32:54.192Z,76.97
2023-03-26T02:35:22.424Z,77.19
2023-03-26T02:37:50.898Z,77.10
2023-03-26T02:40:22.389Z,77.25
2023-03-26T02:42:49.363Z,77.74
2023-03-26T02:45:16.399Z,77.40
2023-03-26T02:47:43.351Z,77.47
2023-03-26T02:50:11.974Z,77.79
2023-03-26T02:52:38.526Z,77.81
2023-03-26T02:55:05.664Z,78.12
2023-03-26T02:57:32.102Z,77.92
2023-03-26T02:59:58.763Z,77.90
2023-03-26T03:02:25.673Z,78.43
2023-03-26T03:04:52.306Z,78.56
2023-03-26T03:07:18.808Z,78.79
2023-03-26T03:09:45.488Z,78.60
2023-03-26T03:12:12.003Z,78.07
2023-03-26T03:14:38.406Z,78.13
2023-03-26T03:17:04.899Z,77.95
2023-03-26T03:19:31.478Z,78.50
2023-03-26T03:21:57.919Z,78.42
2023-03-26T03:24:24.309Z,78.21
2023-03-26T03:26:56.721Z,78.82
2023-03-26T03:29:23.906Z,79.01
2023-03-26T03:31:50.572Z,78.69
2023-03-26T03:34:17.395Z,79.05
2023-03-26T03:36:48.688Z,79.35
2023-03-26T03:39:15.599Z,79.51
2023-03-26T03:41:42.600Z,80.12
2023-03-26T03:44:09.129Z,80.08
2023-03-26T03:46:36.004Z,80.25
2023-03-26T03:49:03.346Z,80.52
2023-03-26T03:51:29.849Z,80.46
2023-03-26T03:53:56.607Z,81.04
2023-03-26T03:56:24.163Z,81.54
2023-03-26T03:58:51.568Z,81.24
2023-03-26T04:01:18.689Z,81.63
2023-03-26T04:03:46.523Z,81.29
2023-03-26T04:06:13.667Z,81.83
2023-03-26T04:08:40.313Z,81.90
2023-03-26T04:11:06.803Z,82.86
2023-03-26T04:13:33.284Z,82.74
2023-03-26T04:16:00.820Z,82.34
2023-03-26T04:18:27.693Z,82.24
2023-03-26T04:20:55.917Z,82.42
2023-03-26T04:23:23.253Z,82.92
2023-03-26T04:25:54.278Z,83.02
2023-03-26T04:28:31.346Z,83.06
2023-03-26T04:31:00.969Z,83.93
2023-03-26T04:33:32.953Z,83.56
2023-03-26T04:36:03.180Z,83.79
2023-03-26T04:38:33.484Z,83.40
2023-03-26T04:41:02.577Z,83.42
2023-03-26T04:43:31.224Z,84.47
2023-03-26T04:45:58.595Z,85.09
2023-03-26T04:48:25.062Z,85.01
2023-03-26T04:50:52.414Z,84.38
2023-03-26T04:53:21.413Z,84.64
2023-03-26T04:56:01.799Z,85.39
2023-03-26T04:58:33.027Z,85.16
2023-03-26T05:01:01.287Z,85.43
2023-03-26T05:03:41.112Z,86.46
2023-03-26T05:06:10.982Z,86.63
2023-03-26T05:08:37.409Z,86.44
2023-03-26T05:11:07.910Z,87.86
2023-03-26T05:13:34.316Z,88.32
2023-03-26T05:16:00.909Z,88.68
2023-03-26T05:18:27.269Z,88.96
2023-03-26T05:20:53.919Z,89.74
2023-03-26T05:23:20.499Z,89.48
2023-03-26T05:25:47.209Z,90.00
2023-03-26T05:28:13.879Z,90.16
2023-03-26T05:30:40.347Z,89.89
2023-03-26T05:33:07.062Z,89.29
2023-03-26T05:35:33.602Z,89.55
2023-03-26T05:38:00.190Z,89.60
2023-03-26T05:40:26.640Z,89.55
2023-03-26T05:42:53.092Z,88.90
2023-03-26T05:45:19.846Z,88.58
2023-03-26T05:47:46.687Z,88.19
2023-03-26T05:50:13.101Z,88.03
2023-03-26T05:52:39.653Z,88.07
2023-03-26T05:55:08.027Z,87.81
2023-03-26T05:57:35.761Z,87.65
2023-03-26T06:00:04.239Z,87.48
2023-03-26T06:02:30.717Z,87.04
2023-03-26T06:04:57.149Z,86.31
2023-03-26T06:07:23.796Z,85.84
2023-03-26T06:09:50.694Z,85.49
2023-03-26T06:12:17.125Z,85.08
2023-03-26T06:14:43.501Z,84.75
2023-03-26T06:17:10.708Z,84.82
2023-03-26T06:19:37.620Z,84.08
2023-03-26T06:22:04.891Z,83.39
2023-03-26T06:24:31.864Z,82.67
2023-03-26T06:26:58.697Z,82.32
2023-03-26T06:29:25.251Z,82.07
2023-03-26T06:31:52.000Z,81.95
2023-03-26T06:34:18.489Z,82.00
2023-03-26T06:36:44.891Z,82.04
2023-03-26T06:39:11.394Z,82.48
2023-03-26T06:41:37.804Z,82.00
2023-03-26T06:44:04.342Z,81.94
2023-03-26T06:46:30.778Z,81.96
2023-03-26T06:48:57.423Z,81.82
2023-03-26T06:51:23.823Z,81.47
2023-03-26T06:53:50.485Z,82.01
2023-03-26T06:56:17.076Z,81.67
2023-03-26T06:58:43.806Z,82.08
2023-03-26T07:01:10.422Z,81.60
2023-03-26T07:03:37.041Z,81.56
2023-03-26T07:06:03.701Z,81.19
2023-03-26T07:08:31.543Z,81.02
2023-03-26T07:10:58.092Z,81.43
2023-03-26T07:13:24.995Z,81.36
2023-03-26T07:15:51.374Z,80.85
2023-03-26T07:18:18.033Z,80.45
2023-03-26T07:20:45.994Z,80.93
2023-03-26T07:23:15.728Z,80.92
2023-03-26T07:25:42.519Z,81.32
2023-03-26T07:29:04.445Z,81.69
2023-03-26T07:31:51.064Z,81.90
2023-03-26T07:34:35.250Z,80.73
2023-03-26T07:37:20.746Z,82.05
2023-03-26T07:40:09.742Z,81.78
2023-03-26T07:42:54.758Z,81.55
2023-03-26T07:45:54.105Z,81.96
2023-03-26T07:48:27.361Z,81.91
2023-03-26T07:50:54.942Z,81.94
2023-03-26T07:53:22.768Z,81.65
2023-03-26T07:55:49.068Z,81.59
2023-03-26T07:58:46.759Z,81.66
2023-03-26T08:01:45.388Z,81.93
2023-03-26T08:04:26.325Z,81.62
2023-03-26T08:07:31.027Z,81.89
2023-03-26T08:10:06.005Z,82.39
2023-03-26T08:13:07.820Z,83.07
2023-03-26T08:15:54.116Z,82.75
2023-03-26T08:18:32.383Z,82.71
2023-03-26T08:21:25.486Z,82.31
2023-03-26T08:24:13.291Z,82.93
2023-03-26T08:26:39.620Z,83.46
2023-03-26T08:29:34.796Z,82.42
2023-03-26T08:32:04.459Z,82.87
2023-03-26T08:34:30.986Z,82.13
2023-03-26T08:36:57.360Z,83.08
2023-03-26T08:39:24.009Z,81.80
2023-03-26T08:42:07.754Z,81.87
2023-03-26T08:45:10.424Z,82.15
2023-03-26T08:47:59.196Z,82.32
2023-03-26T08:50:51.383Z,82.95
2023-03-26T08:53:48.710Z,83.05
2023-03-26T08:56:36.623Z,83.53
2023-03-26T08:59:41.037Z,84.58
2023-03-26T09:02:19.074Z,86.03
2023-03-26T09:05:14.884Z,88.08
2023-03-26T09:08:11.042Z,89.36
2023-03-26T09:10:50.929Z,89.28
2023-03-26T09:13:33.204Z,90.48
2023-03-26T09:16:31.559Z,91.64
2023-03-26T09:19:16.500Z,93.19
2023-03-26T09:22:20.714Z,93.77
2023-03-26T09:25:11.386Z,94.74
2023-03-26T09:28:09.645Z,95.60
2023-03-26T09:31:09.802Z,97.96
2023-03-26T09:33:48.239Z,98.30
2023-03-26T09:36:51.875Z,98.66
2023-03-26T09:39:49.447Z,98.55
2023-03-26T09:42:40.619Z,100.00
2023-03-26T09:45:43.850Z,100.00
2023-03-26T09:48:29.253Z,100.00
2023-03-26T09:51:21.306Z,100.00
2023-03-26T09:54:04.112Z,100.00
2023-03-26T09:56:52.319Z,99.86
2023-03-26T09:59:44.628Z,99.72
2023-03-26T10:02:45.624Z,99.39
2023-03-26T10:05:20.152Z,98.19
2023-03-26T10:08:20.184Z,99.81
2023-03-26T10:10:57.252Z,97.18
2023-03-26T10:13:48.849Z,91.06
2023-03-26T10:16:28.399Z,90.23
2023-03-26T10:19:09.975Z,90.33
2023-03-26T10:22:11.738Z,91.30
2023-03-26T10:24:57.111Z,89.08
2023-03-26T10:27:33.758Z,89.71
2023-03-26T10:30:26.724Z,91.58
2023-03-26T10:33:21.762Z,90.31
2023-03-26T10:36:29.443Z,89.49
2023-03-26T10:39:37.578Z,90.75
2023-03-26T10:42:11.552Z,91.04
2023-03-26T10:44:47.053Z,92.96
2023-03-26T10:47:42.072Z,94.63
2023-03-26T10:50:26.153Z,96.26
2023-03-26T10:53:14.663Z,100.00
2023-03-26T10:55:46.612Z,99.45
2023-03-26T10:58:25.607Z,100.00
2023-03-26T11:01:11.274Z,99.16
2023-03-26T11:03:46.936Z,97.51
2023-03-26T11:06:47.883Z,98.51
2023-03-26T11:09:39.218Z,96.80
2023-03-26T11:12:28.927Z,97.21
2023-03-26T11:15:12.477Z,99.39
2023-03-26T11:18:12.548Z,100.00
2023-03-26T11:20:44.681Z,100.00
2023-03-26T11:23:37.348Z,100.00
2023-03-26T11:26:06.714Z,100.00
2023-03-26T11:29:03.921Z,100.00
2023-03-26T11:31:55.566Z,100.00
2023-03-26T11:34:29.502Z,100.00
2023-03-26T11:36:58.873Z,100.00
2023-03-26T11:39:31.053Z,100.00
2023-03-26T11:42:11.261Z,100.00
2023-03-26T11:44:48.002Z,100.00
2023-03-26T11:47:20.760Z,100.00
2023-03-26T11:49:50.135Z,100.00
2023-03-26T11:52:16.939Z,100.00
2023-03-26T11:54:48.086Z,100.00
2023-03-26T11:57:22.580Z,100.00
2023-03-26T11:59:58.169Z,100.00
2023-03-26T12:02:38.563Z,98.62
2023-03-26T12:05:29.452Z,100.00
2023-03-26T12:07:58.723Z,100.00
2023-03-26T12:10:38.633Z,100.00
2023-03-26T12:13:24.126Z,100.00
2023-03-26T12:15:50.591Z,100.00
2023-03-26T12:18:25.673Z,100.00
2023-03-26T12:21:12.296Z,100.00
2023-03-26T12:24:04.528Z,100.00
2023-03-26T12:26:49.051Z,100.00
2023-03-26T12:29:18.731Z,100.00
2023-03-26T12:31:56.075Z,100.00
2023-03-26T12:34:30.772Z,100.00
2023-03-26T12:37:01.631Z,100.00
2023-03-26T12:40:09.516Z,100.00
2023-03-26T12:44:44.920Z,100.00
2023-03-26T12:47:55.075Z,100.00
2023-03-26T12:48:41.397Z,100.00
2023-03-26T12:51:21.458Z,100.00
2023-03-26T12:54:23.953Z,100.00
2023-03-26T12:57:18.928Z,100.00
2023-03-26T13:00:20.054Z,100.00
2023-03-26T13:03:17.554Z,100.00
2023-03-26T13:05:59.266Z,100.00
2023-03-26T13:08:57.865Z,100.00
2023-03-26T13:12:01.558Z,100.00
2023-03-26T13:14:42.505Z,100.00
2023-03-26T13:17:33.732Z,100.00
2023-03-26T13:20:11.988Z,98.83
2023-03-26T13:22:49.135Z,100.00
2023-03-26T13:25:30.549Z,99.75
2023-03-26T13:28:08.438Z,98.92
2023-03-26T13:30:43.665Z,98.85
2023-03-26T13:33:20.901Z,98.03
2023-03-26T13:36:14.418Z,96.47
2023-03-26T13:39:05.147Z,96.80
2023-03-26T13:41:40.658Z,96.59
2023-03-26T13:44:10.034Z,96.55
2023-03-26T13:46:53.746Z,97.97
2023-03-26T13:49:29.502Z,97.33
2023-03-26T13:52:02.500Z,93.82
2023-03-26T13:55:09.080Z,93.31
2023-03-26T13:57:43.044Z,93.17
2023-03-26T14:00:21.716Z,91.66
2023-03-26T14:03:03.950Z,93.76
2023-03-26T14:05:36.939Z,94.01
2023-03-26T14:08:15.320Z,95.57
2023-03-26T14:10:48.303Z,92.61
2023-03-26T14:13:41.890Z,91.51
2023-03-26T14:16:16.386Z,92.12
2023-03-26T14:19:03.294Z,91.37
2023-03-26T14:22:15.870Z,90.54
2023-03-26T14:24:53.896Z,92.43
2023-03-26T14:27:37.965Z,95.79
2023-03-26T14:30:32.003Z,96.47
2023-03-26T14:33:28.107Z,90.71
2023-03-26T14:36:22.572Z,89.27
2023-03-26T14:39:16.639Z,87.03
2023-03-26T14:41:56.509Z,88.95
2023-03-26T14:44:47.659Z,89.07
2023-03-26T14:47:23.176Z,88.78
2023-03-26T14:50:32.385Z,91.74
2023-03-26T14:53:04.295Z,91.28
2023-03-26T14:55:42.757Z,92.31
2023-03-26T14:58:47.155Z,90.11
2023-03-26T15:01:21.371Z,86.53
2023-03-26T15:04:06.570Z,86.26
2023-03-26T15:07:02.819Z,87.41
2023-03-26T15:09:56.854Z,90.65
2023-03-26T15:12:48.451Z,92.21
2023-03-26T15:15:41.892Z,87.37
2023-03-26T15:18:27.220Z,83.95
2023-03-26T15:21:42.053Z,85.02
2023-03-26T15:24:26.947Z,84.02
2023-03-26T15:27:24.505Z,82.60
2023-03-26T15:30:12.715Z,81.51
2023-03-26T15:33:18.047Z,81.04
2023-03-26T15:35:57.596Z,81.79
2023-03-26T15:38:48.684Z,82.54
2023-03-26T15:41:45.247Z,83.34
2023-03-26T15:44:53.579Z,82.82
2023-03-26T15:47:32.658Z,83.00
2023-03-26T15:50:30.593Z,83.01
2023-03-26T15:53:26.529Z,84.31
2023-03-26T15:56:07.861Z,86.10
2023-03-26T15:59:00.360Z,88.60
2023-03-26T16:02:12.085Z,88.09
2023-03-26T16:04:50.450Z,83.60
2023-03-26T16:07:21.761Z,84.38
2023-03-26T16:09:59.838Z,84.93
2023-03-26T16:12:46.126Z,84.60
2023-03-26T16:15:24.755Z,84.86
2023-03-26T16:18:15.640Z,82.71
2023-03-26T16:20:54.254Z,84.29
2023-03-26T16:23:47.872Z,84.28
2023-03-26T16:26:44.672Z,83.43
2023-03-26T16:29:14.299Z,84.44
2023-03-26T16:31:59.684Z,83.80
2023-03-26T16:34:36.892Z,84.71
2023-03-26T16:37:08.248Z,84.04
2023-03-26T16:39:40.696Z,83.32
2023-03-26T16:42:26.407Z,83.03
2023-03-26T16:45:03.474Z,83.56
2023-03-26T16:47:43.170Z,84.63
2023-03-26T16:50:35.663Z,82.56
2023-03-26T16:53:19.011Z,82.02
2023-03-26T16:56:26.119Z,82.70
2023-03-26T16:59:00.411Z,82.02
2023-03-26T17:01:56.740Z,81.75
2023-03-26T17:04:30.273Z,80.77
2023-03-26T17:07:08.616Z,80.02
2023-03-26T17:10:08.693Z,79.60
2023-03-26T17:12:44.442Z,79.53
2023-03-26T17:15:36.491Z,81.30
2023-03-26T17:18:18.244Z,81.10
2023-03-26T17:21:01.188Z,80.89
2023-03-26T17:24:15.286Z,80.79
2023-03-26T17:27:01.467Z,81.25
2023-03-26T17:29:36.509Z,82.79
2023-03-26T17:32:11.485Z,82.58
2023-03-26T17:34:37.987Z,81.50
2023-03-26T17:37:30.837Z,81.08
2023-03-26T17:40:00.379Z,81.36
2023-03-26T17:42:34.575Z,80.84
2023-03-26T17:45:20.693Z,80.68
2023-03-26T17:47:56.754Z,80.84
2023-03-26T17:50:30.441Z,80.99
2023-03-26T17:53:05.049Z,80.67
2023-03-26T17:55:36.437Z,80.36
2023-03-26T17:58:06.686Z,80.12
2023-03-26T18:00:41.208Z,79.66
2023-03-26T18:03:20.474Z,80.04
2023-03-26T18:05:47.747Z,80.84
2023-03-26T18:08:31.005Z,81.41
2023-03-26T18:11:29.188Z,80.03
2023-03-26T18:14:10.851Z,80.07
2023-03-26T18:16:39.472Z,81.08
2023-03-26T18:19:22.521Z,81.75
2023-03-26T18:21:51.971Z,81.89
2023-03-26T18:24:22.501Z,81.34
2023-03-26T18:26:58.510Z,82.08
2023-03-26T18:29:27.053Z,82.11
2023-03-26T18:32:26.067Z,82.01
2023-03-26T18:35:20.835Z,86.58
2023-03-26T18:37:50.863Z,91.08
2023-03-26T18:40:23.512Z,92.16
2023-03-26T18:42:52.851Z,95.49
2023-03-26T18:45:34.240Z,96.24
2023-03-26T18:48:23.714Z,99.36
2023-03-26T18:50:57.091Z,98.32
2023-03-26T18:53:26.088Z,99.85
2023-03-26T18:55:52.668Z,100.00
2023-03-26T18:58:31.555Z,99.68
2023-03-26T19:01:04.636Z,100.00
2023-03-26T19:03:35.696Z,100.00
2023-03-26T19:06:04.691Z,100.00
2023-03-26T19:08:35.070Z,100.00
2023-03-26T19:11:04.686Z,100.00
2023-03-26T19:13:32.452Z,100.00
2023-03-26T19:16:00.039Z,100.00
2023-03-26T19:18:28.734Z,100.00
2023-03-26T19:20:57.545Z,100.00
2023-03-26T19:23:35.163Z,100.00
2023-03-26T19:26:05.101Z,100.00
2023-03-26T19:28:35.586Z,100.00
2023-03-26T19:31:12.505Z,100.00
2023-03-26T19:33:43.905Z,100.00
2023-03-26T19:36:13.732Z,100.00
2023-03-26T19:38:44.128Z,99.92
2023-03-26T19:41:39.106Z,100.00
2023-03-26T19:44:18.973Z,100.00
2023-03-26T19:46:53.929Z,100.00
2023-03-26T19:49:28.745Z,100.00
2023-03-26T19:52:25.216Z,100.00
2023-03-26T19:55:00.392Z,100.00
2023-03-26T19:57:32.445Z,100.00
2023-03-26T19:59:59.076Z,100.00
2023-03-26T20:02:26.572Z,100.00
2023-03-26T20:04:53.809Z,100.00
2023-03-26T20:07:35.787Z,100.00
2023-03-26T20:10:05.890Z,100.00
2023-03-26T20:12:32.842Z,99.14
2023-03-26T20:15:00.219Z,99.15
2023-03-26T20:17:27.217Z,98.45
2023-03-26T20:19:54.387Z,97.10
2023-03-26T20:22:20.874Z,96.73
2023-03-26T20:24:47.807Z,97.53
2023-03-26T20:27:14.839Z,96.35
2023-03-26T20:29:42.120Z,96.29
2023-03-26T20:32:23.656Z,95.34
2023-03-26T20:34:51.613Z,95.79
2023-03-26T20:37:18.469Z,94.50
2023-03-26T20:39:45.867Z,94.92
2023-03-26T20:42:15.456Z,94.94
2023-03-26T20:44:43.010Z,96.17
2023-03-26T20:47:12.830Z,94.96
2023-03-26T20:49:40.579Z,96.09
2023-03-26T20:52:07.078Z,97.08
2023-03-26T20:54:33.771Z,97.57
2023-03-26T20:57:00.473Z,95.77
2023-03-26T20:59:28.310Z,95.53
2023-03-26T21:01:57.922Z,96.65
2023-03-26T21:04:26.271Z,97.16
2023-03-26T21:06:57.674Z,97.43
2023-03-26T21:09:35.604Z,96.71
2023-03-26T21:12:07.014Z,97.99
2023-03-26T21:14:41.587Z,96.94
2023-03-26T21:17:17.618Z,95.76
2023-03-26T21:19:46.000Z,95.54
2023-03-26T21:22:27.683Z,96.92
2023-03-26T21:25:15.710Z,96.60
2023-03-26T21:28:00.604Z,96.20
2023-03-26T21:30:27.467Z,96.73
2023-03-26T21:32:54.359Z,95.49
2023-03-26T21:35:21.434Z,95.36
2023-03-26T21:37:48.617Z,95.55
2023-03-26T21:40:17.994Z,95.48
2023-03-26T21:42:47.577Z,96.31
2023-03-26T21:45:15.040Z,94.42
2023-03-26T21:47:42.278Z,95.14
2023-03-26T21:50:11.504Z,92.96
2023-03-26T21:52:46.603Z,94.67
2023-03-26T21:55:15.477Z,95.21
2023-03-26T21:58:02.113Z,95.95
2023-03-26T22:00:43.783Z,94.85
2023-03-26T22:03:16.543Z,94.29
2023-03-26T22:05:49.093Z,95.62
2023-03-26T22:08:27.223Z,93.84
2023-03-26T22:10:54.028Z,94.37
2023-03-26T22:13:20.624Z,95.27
2023-03-26T22:15:47.156Z,94.54
2023-03-26T22:18:14.243Z,93.57
2023-03-26T22:20:42.656Z,93.37
2023-03-26T22:23:09.643Z,94.55
2023-03-26T22:25:36.516Z,95.32
2023-03-26T22:28:04.334Z,95.86
2023-03-26T22:30:31.510Z,95.05
2023-03-26T22:32:58.931Z,95.53
2023-03-26T22:35:26.517Z,95.68
2023-03-26T22:37:53.274Z,95.13
2023-03-26T22:40:27.710Z,95.79
2023-03-26T22:42:54.312Z,96.12
2023-03-26T22:45:20.771Z,96.26
2023-03-26T22:47:47.258Z,96.48
2023-03-26T22:50:13.834Z,96.59
2023-03-26T22:52:41.094Z,96.59
2023-03-26T22:55:08.206Z,95.85
2023-03-26T22:57:35.844Z,95.63
2023-03-26T23:00:16.430Z,95.11
2023-03-26T23:02:46.867Z,94.93
2023-03-26T23:05:14.481Z,95.19
2023-03-26T23:07:42.433Z,95.80
2023-03-26T23:10:09.805Z,94.89
2023-03-26T23:12:36.438Z,94.11
2023-03-26T23:15:05.220Z,94.07
2023-03-26T23:17:34.185Z,94.57
2023-03-26T23:20:01.747Z,94.71
2023-03-26T23:22:28.743Z,94.53
2023-03-26T23:24:55.236Z,94.03
2023-03-26T23:27:22.889Z,94.05
2023-03-26T23:29:49.397Z,94.00
2023-03-26T23:32:24.263Z,94.12
2023-03-26T23:34:52.433Z,93.96
2023-03-26T23:37:23.604Z,93.71
2023-03-26T23:39:51.057Z,93.77
2023-03-26T23:42:28.908Z,93.22
2023-03-26T23:44:57.035Z,93.04
2023-03-26T23:47:23.782Z,93.49
2023-03-26T23:49:50.484Z,93.92
2023-03-26T23:52:17.541Z,93.46
2023-03-26T23:54:45.032Z,93.19
2023-03-26T23:57:11.697Z,93.31
2023-03-26T23:59:38.350Z,93.67
